Terminal Aerodrome Forecast
Issued by NWS St Louis, MO

Home | Current Version | Previous Version | Graphics & Text | Print | Product List | Glossary On
Versions: 1 2 3 4 5 6 7 8 9 10 11 12 13 14 15 16 17 18 19 20
011
FTUS43 KLSX 051120
TAFSTL
TAF
KSTL 051120Z 0512/0618 36007KT P6SM SKC
     FM051400 35011KT P6SM FEW040
     FM060100 VRB04KT P6SM SKC=

USA.gov is the U.S. government's official web portal to all federal, state and local government web resources and services.